Terminal Aerodrome Forecast
Issued by NWS Sterling, VA

Current Version | Previous Version | Graphics & Text | Print | Product List | Glossary On
Versions: 1 2 3 4 5 6 7 8 9 10 11 12 13
907
FTUS41 KLWX 251131
TAFMRB
TAF
KMRB 251131Z 2512/2612 VRB03KT P6SM BKN090
     FM251700 25005KT P6SM VCTS BKN060CB
     FM252200 25008KT 6SM -SHRA VCTS BKN060CB
     FM260100 27005KT P6SM BKN060=

USA.gov is the U.S. government's official web portal to all federal, state and local government web resources and services.